Time;durP1;ratioP1;P1;durP2;ratioP2;P2;SDS_P1;SDS_P2;PMS_P1;PMS_P2;Temp;Humidity;BMP_temperature;BMP_pressure;BME280_temperature;BME280_humidity;BME280_pressure;Samples;Min_cycle;Max_cycle;Signal;HPM_P1;HPM_P2
2022/11/25 00:01:31;;;;;;;6.18;2.13;;;5.60;99.90;;;;;;6129793;19;19929;-68
2022/11/25 00:03:38;;;;;;;10.48;2.60;;;5.50;99.90;;;;;;6128983;19;20344;-69
2022/11/25 00:05:42;;;;;;;10.60;2.60;;;5.90;99.90;;;;;;6129057;19;19943;-69
2022/11/25 00:07:46;;;;;;;9.25;2.70;;;5.80;99.90;;;;;;6128787;19;19915;-68
2022/11/25 00:09:50;;;;;;;11.07;2.70;;;5.60;99.90;;;;;;6128528;19;20338;-69
2022/11/25 00:11:54;;;;;;;10.73;3.05;;;5.90;99.90;;;;;;6128692;19;20271;-69
2022/11/25 00:13:59;;;;;;;8.13;3.05;;;5.80;99.90;;;;;;6128620;19;19915;-69
2022/11/25 00:16:04;;;;;;;13.88;3.03;;;5.70;99.90;;;;;;6128518;19;20341;-69
2022/11/25 00:18:08;;;;;;;12.85;2.47;;;6.20;99.90;;;;;;6128239;19;19919;-69
2022/11/25 00:20:14;;;;;;;8.98;2.40;;;5.80;99.90;;;;;;6126971;19;19947;-69
2022/11/25 00:22:19;;;;;;;10.00;2.85;;;5.80;99.90;;;;;;6128497;19;19911;-69
2022/11/25 00:24:23;;;;;;;10.02;2.45;;;;;;;;;;6128479;19;19915;-69
2022/11/25 00:26:30;;;;;;;12.10;2.72;;;5.90;99.90;;;;;;6128122;19;19918;-69
2022/11/25 00:28:33;;;;;;;11.57;2.75;;;6.00;99.90;;;;;;6128472;19;19910;-69
2022/11/25 00:30:37;;;;;;;11.90;2.45;;;5.80;99.90;;;;;;6128355;19;19918;-69
2022/11/25 00:32:41;;;;;;;9.32;2.50;;;;;;;;;;6128391;19;19922;-69
2022/11/25 00:34:45;;;;;;;8.27;2.28;;;5.90;99.90;;;;;;6128086;19;19938;-69
2022/11/25 00:36:55;;;;;;;9.43;2.17;;;6.10;99.90;;;;;;6127868;19;19911;-70
2022/11/25 00:39:00;;;;;;;7.55;2.42;;;5.80;99.90;;;;;;6127830;19;19956;-69
2022/11/25 00:45:36;;;;;;;9.95;2.08;;;6.50;99.90;;;;;;6127895;19;20353;-69
2022/11/25 00:47:40;;;;;;;8.35;2.05;;;;;;;;;;6127833;19;19914;-69
2022/11/25 00:49:46;;;;;;;7.90;2.72;;;6.30;99.90;;;;;;6128136;19;20019;-69
2022/11/25 00:51:53;;;;;;;15.52;2.28;;;6.00;99.90;;;;;;6127712;19;20312;-69
2022/11/25 00:53:57;;;;;;;11.48;2.15;;;6.40;99.90;;;;;;6127809;19;19925;-69
2022/11/25 00:56:15;;;;;;;10.23;2.10;;;6.00;99.90;;;;;;6127369;19;19911;-69
2022/11/25 00:58:20;;;;;;;8.13;2.38;;;6.20;99.90;;;;;;6127663;19;19966;-69
2022/11/25 01:00:24;;;;;;;8.35;2.15;;;6.40;99.90;;;;;;6127700;19;19952;-69
2022/11/25 01:02:28;;;;;;;11.40;2.17;;;6.30;99.90;;;;;;6127738;19;19919;-70
2022/11/25 01:04:32;;;;;;;12.00;2.97;;;6.40;99.90;;;;;;6126601;19;20011;-68
2022/11/25 01:06:37;;;;;;;10.07;2.63;;;6.40;99.90;;;;;;6126751;19;20393;-68
2022/11/25 01:08:45;;;;;;;6.78;2.35;;;6.50;99.90;;;;;;6127893;19;19919;-67
2022/11/25 01:10:49;;;;;;;12.48;3.25;;;6.20;99.90;;;;;;6125625;19;19919;-68
2022/11/25 01:12:52;;;;;;;8.90;2.30;;;6.00;99.90;;;;;;6127597;19;19915;-69
2022/11/25 01:14:56;;;;;;;7.45;1.77;;;6.40;99.90;;;;;;6127262;19;19918;-69
2022/11/25 01:17:00;;;;;;;4.60;2.30;;;6.10;99.90;;;;;;6127322;19;19937;-68
2022/11/25 01:19:06;;;;;;;12.57;2.25;;;6.10;99.90;;;;;;6127103;19;19955;-69
2022/11/25 01:21:12;;;;;;;6.38;1.88;;;6.40;99.90;;;;;;6127656;19;19943;-68
2022/11/25 01:23:16;;;;;;;8.52;2.20;;;6.00;99.90;;;;;;6127136;19;19921;-68
2022/11/25 01:25:23;;;;;;;14.30;3.90;;;6.40;99.90;;;;;;6127226;19;19930;-68
2022/11/25 01:27:27;;;;;;;9.40;2.13;;;;;;;;;;6126626;19;19919;-69
2022/11/25 01:29:31;;;;;;;7.45;1.98;;;6.30;99.90;;;;;;6127445;19;19914;-68
2022/11/25 01:31:37;;;;;;;7.53;2.20;;;6.30;99.90;;;;;;6126802;19;19919;-69
2022/11/25 01:33:41;;;;;;;9.63;1.80;;;6.40;99.90;;;;;;6126944;19;19914;-68
2022/11/25 01:35:45;;;;;;;7.63;2.17;;;6.20;99.90;;;;;;6126887;19;19926;-68
2022/11/25 01:37:49;;;;;;;8.98;2.92;;;6.30;99.90;;;;;;6125734;19;19911;-68
2022/11/25 01:39:53;;;;;;;8.95;1.88;;;6.40;99.90;;;;;;6126416;19;19935;-68
2022/11/25 01:41:59;;;;;;;8.00;2.17;;;6.30;99.90;;;;;;6126968;19;19935;-68
2022/11/25 01:44:13;;;;;;;9.80;2.28;;;5.90;99.90;;;;;;6127716;19;20354;-68
2022/11/25 01:46:23;;;;;;;8.07;2.13;;;6.50;99.90;;;;;;6127230;19;20268;-68
2022/11/25 01:48:30;;;;;;;7.10;2.05;;;6.20;99.90;;;;;;6127074;19;20293;-68
2022/11/25 01:50:36;;;;;;;13.05;2.08;;;6.30;99.90;;;;;;6126941;19;19951;-68
2022/11/25 01:52:43;;;;;;;10.23;2.28;;;6.60;99.90;;;;;;6126812;19;19938;-69
2022/11/25 01:54:54;;;;;;;8.38;1.77;;;6.70;99.90;;;;;;6126542;19;19911;-69
2022/11/25 01:57:03;;;;;;;9.13;1.33;;;6.00;99.90;;;;;;6126114;19;19911;-69
2022/11/25 01:59:07;;;;;;;7.13;1.67;;;6.60;99.90;;;;;;6127732;19;19914;-69
2022/11/25 02:01:12;;;;;;;9.25;2.28;;;6.50;99.90;;;;;;6125091;19;19915;-68
2022/11/25 02:03:16;;;;;;;7.78;1.63;;;6.50;99.90;;;;;;6126176;19;19922;-69
2022/11/25 02:05:23;;;;;;;9.57;1.88;;;6.20;99.90;;;;;;6126462;19;19919;-68
2022/11/25 02:07:33;;;;;;;10.23;1.90;;;6.50;99.90;;;;;;6125407;19;20337;-69
2022/11/25 02:09:40;;;;;;;8.15;1.92;;;6.30;99.90;;;;;;6125971;19;19914;-69
2022/11/25 02:11:46;;;;;;;9.40;2.03;;;6.50;99.90;;;;;;6126061;19;19943;-69
2022/11/25 02:13:53;;;;;;;6.38;2.03;;;6.90;99.90;;;;;;6125816;19;20453;-69
2022/11/25 02:15:57;;;;;;;7.35;2.30;;;6.30;99.90;;;;;;6126340;19;19947;-68
2022/11/25 02:18:01;;;;;;;11.57;2.20;;;6.20;99.90;;;;;;6126094;19;19910;-68
2022/11/25 02:20:09;;;;;;;7.47;2.35;;;6.40;99.90;;;;;;6125410;19;20241;-68
2022/11/25 02:22:22;;;;;;;8.27;2.17;;;6.40;99.90;;;;;;6117713;19;20021;-68
2022/11/25 02:24:31;;;;;;;4.85;1.52;;;6.40;99.90;;;;;;6125967;19;19925;-69
2022/11/25 02:26:38;;;;;;;9.60;1.98;;;6.40;99.90;;;;;;6125110;19;19919;-69
2022/11/25 02:28:42;;;;;;;11.05;2.50;;;6.50;99.90;;;;;;6125487;19;19923;-69
2022/11/25 02:30:46;;;;;;;9.75;2.65;;;6.70;99.90;;;;;;6125308;19;19922;-69
2022/11/25 02:32:50;;;;;;;8.32;1.92;;;6.30;99.90;;;;;;6125748;19;19915;-70
2022/11/25 02:34:54;;;;;;;9.38;1.80;;;6.70;99.90;;;;;;6125285;19;19925;-70
2022/11/25 02:36:58;;;;;;;4.63;1.83;;;6.60;99.90;;;;;;6124818;19;19943;-70
2022/11/25 02:39:03;;;;;;;10.93;2.10;;;6.40;99.90;;;;;;6125544;19;19957;-69
2022/11/25 02:41:11;;;;;;;10.23;2.20;;;6.30;99.90;;;;;;6123897;19;19935;-70
2022/11/25 02:43:18;;;;;;;10.38;2.00;;;6.20;99.90;;;;;;6125046;19;19931;-70
2022/11/25 02:45:29;;;;;;;4.70;1.77;;;6.60;99.90;;;;;;6125404;19;19939;-69
2022/11/25 02:47:33;;;;;;;9.52;2.90;;;6.40;99.90;;;;;;6124981;19;19947;-70
2022/11/25 02:49:37;;;;;;;10.05;2.10;;;6.50;99.90;;;;;;6125015;19;19911;-70
2022/11/25 02:51:43;;;;;;;9.05;2.42;;;6.50;99.90;;;;;;6125086;19;19915;-69
2022/11/25 02:53:48;;;;;;;9.35;2.33;;;6.50;99.90;;;;;;6125174;19;20373;-70
2022/11/25 02:55:52;;;;;;;8.55;2.35;;;6.60;99.90;;;;;;6124353;19;19919;-70
2022/11/25 02:57:55;;;;;;;6.40;2.33;;;6.70;99.90;;;;;;6126609;19;20031;-70
2022/11/25 03:00:02;;;;;;;9.27;1.92;;;6.20;99.90;;;;;;6124512;19;19915;-69
2022/11/25 03:02:06;;;;;;;9.43;1.83;;;6.30;99.90;;;;;;6124596;19;20034;-69
2022/11/25 03:04:10;;;;;;;8.50;2.85;;;;;;;;;;6124646;19;19919;-70
2022/11/25 03:06:14;;;;;;;11.30;2.47;;;6.30;99.90;;;;;;6123830;19;19946;-69
2022/11/25 03:08:18;;;;;;;8.07;2.45;;;6.50;99.90;;;;;;6124533;19;19936;-70
2022/11/25 03:10:23;;;;;;;9.68;2.03;;;6.50;99.90;;;;;;6124389;19;19919;-70
2022/11/25 03:12:24;;;;;;;8.90;1.75;;;6.30;99.90;;;;;;6124458;19;20325;-70
2022/11/25 03:14:28;;;;;;;15.90;2.72;;;6.10;99.90;;;;;;6124621;19;19914;-70
2022/11/25 03:16:35;;;;;;;9.82;2.03;;;6.40;99.90;;;;;;6124238;19;19922;-70
2022/11/25 03:18:39;;;;;;;5.75;2.08;;;6.30;99.90;;;;;;6124011;19;19922;-69
2022/11/25 03:20:43;;;;;;;8.98;2.10;;;6.30;99.90;;;;;;6123633;19;19919;-69
2022/11/25 03:22:47;;;;;;;12.88;2.35;;;6.20;99.90;;;;;;6124584;19;19936;-69
2022/11/25 03:24:50;;;;;;;7.05;2.03;;;6.70;99.90;;;;;;6124142;19;19950;-69
2022/11/25 03:26:54;;;;;;;8.32;2.63;;;;;;;;;;6119592;19;20039;-69
2022/11/25 03:28:58;;;;;;;9.05;2.40;;;6.50;99.90;;;;;;6123987;19;19915;-68
2022/11/25 03:31:02;;;;;;;7.80;2.63;;;6.60;99.90;;;;;;6124141;19;19943;-68
2022/11/25 03:33:08;;;;;;;11.77;2.92;;;6.40;99.90;;;;;;6125512;19;19925;-70
2022/11/25 03:35:13;;;;;;;7.72;2.75;;;6.30;99.90;;;;;;6129505;19;19943;-69
2022/11/25 03:37:17;;;;;;;11.98;2.05;;;6.20;99.90;;;;;;6128339;19;20036;-69
2022/11/25 03:39:22;;;;;;;5.85;2.10;;;6.20;99.90;;;;;;6129966;19;19944;-69
2022/11/25 03:41:26;;;;;;;7.25;2.35;;;6.50;99.90;;;;;;6127806;19;19978;-69
2022/11/25 03:43:30;;;;;;;8.13;2.25;;;6.10;99.90;;;;;;6129311;19;19915;-70
2022/11/25 03:45:34;;;;;;;7.47;2.35;;;6.30;99.90;;;;;;6129141;19;20374;-70
2022/11/25 03:47:38;;;;;;;9.10;2.00;;;6.50;99.90;;;;;;6129733;19;19919;-70
2022/11/25 03:49:44;;;;;;;5.53;2.05;;;6.40;99.90;;;;;;6129255;19;19919;-70
2022/11/25 03:51:48;;;;;;;7.78;1.67;;;6.40;99.90;;;;;;6129383;19;19928;-68
2022/11/25 03:53:52;;;;;;;7.60;2.13;;;6.60;99.90;;;;;;6129103;19;19915;-69
2022/11/25 03:55:56;;;;;;;13.18;2.50;;;6.50;99.90;;;;;;6129805;19;19986;-71
2022/11/25 03:58:00;;;;;;;8.57;2.30;;;;;;;;;;6129379;19;19955;-69
2022/11/25 04:00:04;;;;;;;9.10;2.35;;;;;;;;;;6129058;19;19918;-69
2022/11/25 04:02:08;;;;;;;7.70;2.00;;;;;;;;;;6127372;19;19943;-69
2022/11/25 04:04:12;;;;;;;10.30;2.10;;;;;;;;;;6128844;19;20256;-69
2022/11/25 04:06:20;;;;;;;9.43;2.88;;;6.10;99.90;;;;;;6127983;19;19922;-69
2022/11/25 04:08:26;;;;;;;9.40;2.67;;;6.60;99.90;;;;;;6129520;19;19970;-70
2022/11/25 04:10:30;;;;;;;9.68;2.45;;;6.60;99.90;;;;;;6129009;19;19922;-69
2022/11/25 04:12:46;;;;;;;7.85;2.53;;;6.20;99.90;;;;;;6129091;19;19918;-69
2022/11/25 04:14:52;;;;;;;5.53;2.13;;;6.70;99.90;;;;;;6128832;19;20301;-70
2022/11/25 04:16:56;;;;;;;9.60;2.25;;;6.50;99.90;;;;;;6128522;19;19939;-70
2022/11/25 04:19:00;;;;;;;6.13;2.50;;;6.30;99.90;;;;;;6128628;19;20588;-70
2022/11/25 04:21:04;;;;;;;6.00;2.22;;;;;;;;;;6127726;19;19919;-70
2022/11/25 04:23:11;;;;;;;8.32;1.60;;;6.10;99.90;;;;;;6128697;19;20353;-70
2022/11/25 04:25:15;;;;;;;16.80;2.58;;;;;;;;;;6128798;19;20029;-70
2022/11/25 04:27:19;;;;;;;12.45;2.05;;;6.50;99.90;;;;;;6128046;19;19922;-70
2022/11/25 04:29:24;;;;;;;7.63;2.90;;;6.20;99.90;;;;;;6128700;19;19925;-69
2022/11/25 04:31:28;;;;;;;6.38;2.20;;;6.50;99.90;;;;;;6128653;19;19911;-69
2022/11/25 04:33:32;;;;;;;11.75;2.95;;;;;;;;;;6128180;19;19957;-69
2022/11/25 04:35:36;;;;;;;10.93;2.80;;;;;;;;;;6128229;19;19926;-69
2022/11/25 04:37:40;;;;;;;9.57;3.17;;;6.30;99.90;;;;;;6127089;19;20726;-69
2022/11/25 04:39:46;;;;;;;7.70;2.10;;;6.20;99.90;;;;;;6128498;19;19951;-69
2022/11/25 04:42:30;;;;;;;7.60;2.25;;;6.40;99.90;;;;;;6126831;19;19946;-69
2022/11/25 04:44:14;;;;;;;5.63;2.13;;;6.20;99.90;;;;;;6126181;19;19922;-69
2022/11/25 04:46:20;;;;;;;8.90;2.83;;;6.50;99.90;;;;;;6127282;19;19958;-69
2022/11/25 04:48:25;;;;;;;10.88;2.08;;;6.70;99.90;;;;;;6127886;19;19915;-69
2022/11/25 04:50:29;;;;;;;8.07;2.25;;;6.20;99.90;;;;;;6128076;19;19918;-69
2022/11/25 04:52:32;;;;;;;10.18;2.25;;;6.40;99.90;;;;;;6127532;19;19925;-68
2022/11/25 04:54:36;;;;;;;9.75;3.28;;;6.50;99.90;;;;;;6129231;19;19943;-68
2022/11/25 04:56:43;;;;;;;10.57;2.55;;;6.30;99.90;;;;;;6127173;19;19947;-69
2022/11/25 05:01:03;;;;;;;15.68;2.63;;;6.40;99.90;;;;;;6127399;19;19974;-69
2022/11/25 05:03:08;;;;;;;9.52;2.10;;;6.30;99.90;;;;;;6127676;19;19939;-69
2022/11/25 05:05:12;;;;;;;8.25;2.58;;;6.80;99.90;;;;;;6128113;19;19986;-69
2022/11/25 05:07:17;;;;;;;8.50;2.30;;;6.50;99.90;;;;;;6127027;19;19933;-69
2022/11/25 05:09:21;;;;;;;8.45;2.70;;;6.40;99.90;;;;;;6127733;19;19915;-69
2022/11/25 05:11:26;;;;;;;10.27;2.58;;;6.70;99.90;;;;;;6127777;19;19911;-69
2022/11/25 05:13:32;;;;;;;6.97;2.30;;;6.80;99.90;;;;;;6127915;19;19915;-69
2022/11/25 05:15:36;;;;;;;10.65;2.97;;;6.40;99.90;;;;;;6127549;19;19921;-69
2022/11/25 05:17:41;;;;;;;9.57;2.65;;;6.20;99.90;;;;;;6127587;19;20276;-69
2022/11/25 05:19:45;;;;;;;12.65;2.50;;;6.70;99.90;;;;;;6127419;19;19926;-70
2022/11/25 05:21:49;;;;;;;6.50;2.30;;;6.30;99.90;;;;;;6126708;19;20345;-70
2022/11/25 05:23:53;;;;;;;11.88;2.95;;;;;;;;;;6127278;19;19919;-69
2022/11/25 05:26:00;;;;;;;9.63;2.60;;;6.30;99.90;;;;;;6126787;19;20340;-69
2022/11/25 05:28:04;;;;;;;11.77;3.97;;;6.50;99.90;;;;;;6127057;19;19915;-69
2022/11/25 05:30:12;;;;;;;8.77;2.17;;;6.50;99.90;;;;;;6126979;19;19934;-69
2022/11/25 05:32:17;;;;;;;10.13;2.80;;;6.70;99.90;;;;;;6126810;19;20043;-69
2022/11/25 05:34:21;;;;;;;12.93;2.80;;;6.60;99.90;;;;;;6127012;19;19919;-69
2022/11/25 05:36:25;;;;;;;11.38;2.05;;;6.60;99.90;;;;;;6126533;19;20275;-69
2022/11/25 05:38:29;;;;;;;8.48;2.20;;;6.50;99.90;;;;;;6127264;19;19953;-69
2022/11/25 05:40:33;;;;;;;5.80;2.30;;;;;;;;;;6126807;19;19922;-69
2022/11/25 05:42:37;;;;;;;8.43;2.30;;;6.50;99.90;;;;;;6125401;19;20361;-70
2022/11/25 05:44:41;;;;;;;6.95;2.25;;;6.50;99.90;;;;;;6126854;19;20302;-70
2022/11/25 05:46:49;;;;;;;14.60;3.03;;;6.40;99.90;;;;;;6127324;19;19919;-70
2022/11/25 05:48:55;;;;;;;8.27;2.47;;;6.60;99.90;;;;;;6127050;19;19922;-69
2022/11/25 05:51:01;;;;;;;7.72;3.08;;;6.50;99.90;;;;;;6126223;19;19923;-68
2022/11/25 05:53:05;;;;;;;8.38;2.45;;;5.90;99.90;;;;;;6127163;19;19939;-68
2022/11/25 05:55:10;;;;;;;8.85;2.53;;;6.50;99.90;;;;;;6126560;19;19911;-69
2022/11/25 05:57:14;;;;;;;7.75;2.28;;;6.80;99.90;;;;;;6124837;19;20381;-69
2022/11/25 05:59:18;;;;;;;10.23;2.72;;;6.50;99.90;;;;;;6126165;19;20318;-68
2022/11/25 06:01:22;;;;;;;14.32;3.00;;;6.60;99.90;;;;;;6126264;19;19915;-69
2022/11/25 06:03:30;;;;;;;5.63;1.92;;;6.60;99.90;;;;;;6126087;19;19992;-69
2022/11/25 06:05:37;;;;;;;7.55;2.85;;;7.10;99.90;;;;;;6126233;19;19917;-69
2022/11/25 06:07:41;;;;;;;9.77;2.58;;;;;;;;;;6125135;19;19990;-70
2022/11/25 06:09:45;;;;;;;6.55;2.33;;;;;;;;;;6126015;19;20464;-69
2022/11/25 06:11:50;;;;;;;11.90;2.50;;;6.70;99.90;;;;;;6125736;19;19996;-68
2022/11/25 06:13:54;;;;;;;9.35;2.47;;;6.70;99.90;;;;;;6125943;19;20242;-69
2022/11/25 06:15:58;;;;;;;12.25;1.95;;;6.70;99.90;;;;;;6126215;19;20265;-69
2022/11/25 06:18:02;;;;;;;8.82;2.85;;;6.80;99.90;;;;;;6126218;19;19914;-69
2022/11/25 06:20:10;;;;;;;7.40;2.17;;;6.90;99.90;;;;;;6125686;19;20625;-69
2022/11/25 06:22:14;;;;;;;9.82;2.65;;;6.60;99.90;;;;;;6125077;19;19978;-70
2022/11/25 06:24:18;;;;;;;14.52;2.53;;;6.50;99.90;;;;;;6125674;19;19925;-69
2022/11/25 06:26:23;;;;;;;12.50;2.60;;;6.60;99.90;;;;;;6125182;19;19918;-69
2022/11/25 06:28:27;;;;;;;5.45;2.38;;;6.90;99.90;;;;;;6125786;19;19943;-70
2022/11/25 06:30:31;;;;;;;12.40;2.75;;;6.90;99.90;;;;;;6125730;19;19915;-69
2022/11/25 06:32:35;;;;;;;5.03;2.45;;;;;;;;;;6124658;19;20802;-69
2022/11/25 06:34:41;;;;;;;9.23;2.65;;;6.90;99.90;;;;;;6125356;19;19919;-69
2022/11/25 06:36:48;;;;;;;6.85;2.50;;;6.70;99.90;;;;;;6125275;19;20335;-70
2022/11/25 06:38:54;;;;;;;8.07;3.00;;;7.10;99.90;;;;;;6125414;19;20050;-69
2022/11/25 06:41:02;;;;;;;6.78;2.53;;;7.10;99.90;;;;;;6125530;19;19919;-69
2022/11/25 06:43:06;;;;;;;8.27;2.58;;;6.70;99.90;;;;;;6124059;19;20329;-70
2022/11/25 06:45:11;;;;;;;8.98;2.78;;;6.70;99.90;;;;;;6125190;19;19926;-69
2022/11/25 06:47:15;;;;;;;7.93;2.50;;;7.20;99.90;;;;;;6125388;19;20240;-69
2022/11/25 06:49:19;;;;;;;9.93;2.72;;;7.10;99.90;;;;;;6124444;19;20023;-69
2022/11/25 06:51:23;;;;;;;13.73;3.20;;;6.60;99.90;;;;;;6125110;19;19919;-69
2022/11/25 06:53:30;;;;;;;10.38;2.97;;;7.00;99.90;;;;;;6124883;19;19982;-69
2022/11/25 06:55:34;;;;;;;11.45;3.33;;;6.80;99.90;;;;;;6123202;19;19936;-70
2022/11/25 06:57:38;;;;;;;8.63;3.28;;;6.60;99.90;;;;;;6125053;19;19943;-70
2022/11/25 06:59:45;;;;;;;12.35;2.80;;;;;;;;;;6123072;19;20335;-70
2022/11/25 07:01:49;;;;;;;10.40;3.25;;;6.70;99.90;;;;;;6124296;19;20290;-69
2022/11/25 07:03:56;;;;;;;7.25;2.78;;;7.10;99.90;;;;;;6124716;19;19910;-69
2022/11/25 07:06:00;;;;;;;11.35;3.50;;;6.90;99.90;;;;;;6124522;19;19947;-69
2022/11/25 07:08:04;;;;;;;7.50;3.10;;;6.80;99.90;;;;;;6124300;19;19946;-69
2022/11/25 07:10:12;;;;;;;13.43;3.00;;;6.70;99.90;;;;;;6130038;19;19914;-69
2022/11/25 07:12:17;;;;;;;8.32;3.10;;;;;;;;;;6130335;19;20263;-69
2022/11/25 07:14:20;;;;;;;7.97;3.10;;;6.80;99.90;;;;;;6130258;19;19911;-69
2022/11/25 07:16:24;;;;;;;13.98;3.35;;;7.20;99.90;;;;;;6130072;19;20361;-70
2022/11/25 07:18:31;;;;;;;12.73;3.40;;;6.80;99.90;;;;;;6129768;19;20289;-69
2022/11/25 07:20:35;;;;;;;10.75;4.22;;;6.80;99.90;;;;;;6129989;19;20266;-69
2022/11/25 07:22:39;;;;;;;10.20;2.92;;;6.80;99.90;;;;;;6128410;19;19911;-69
2022/11/25 07:24:43;;;;;;;9.02;3.05;;;7.00;99.90;;;;;;6129958;19;19911;-69
2022/11/25 07:26:50;;;;;;;12.23;3.47;;;7.10;99.90;;;;;;6129507;19;19910;-70
2022/11/25 07:28:55;;;;;;;10.63;3.42;;;6.80;99.90;;;;;;6129861;19;19911;-70
2022/11/25 07:31:07;;;;;;;10.15;4.18;;;7.50;99.90;;;;;;6129554;19;19918;-70
2022/11/25 07:33:11;;;;;;;13.82;3.53;;;6.50;99.90;;;;;;6129723;19;19943;-69
2022/11/25 07:35:15;;;;;;;10.18;3.20;;;;;;;;;;6129618;19;19914;-70
2022/11/25 07:37:19;;;;;;;11.93;3.90;;;;;;;;;;6128995;19;20274;-69
2022/11/25 07:39:25;;;;;;;13.02;3.63;;;6.70;99.90;;;;;;6129467;19;19923;-70
2022/11/25 07:41:30;;;;;;;8.52;3.88;;;6.70;99.90;;;;;;6129681;19;19926;-69
2022/11/25 07:43:37;;;;;;;8.25;3.13;;;6.80;99.90;;;;;;6127079;19;20386;-69
2022/11/25 07:45:41;;;;;;;9.95;3.20;;;6.80;99.90;;;;;;6129651;19;19930;-69
2022/11/25 07:47:45;;;;;;;12.48;4.10;;;7.00;99.90;;;;;;6129258;19;19918;-69
2022/11/25 07:49:49;;;;;;;14.07;3.67;;;6.90;99.90;;;;;;6129174;19;19992;-69
2022/11/25 07:51:55;;;;;;;10.30;3.47;;;6.90;99.90;;;;;;6129225;19;19918;-69
2022/11/25 07:54:01;;;;;;;10.00;2.92;;;7.10;99.90;;;;;;6129082;19;20270;-69
2022/11/25 07:56:05;;;;;;;9.75;3.35;;;6.90;99.90;;;;;;6128739;19;19955;-69
2022/11/25 07:58:09;;;;;;;12.10;3.50;;;;;;;;;;6129130;19;19921;-70
2022/11/25 08:00:17;;;;;;;10.63;3.45;;;7.10;99.90;;;;;;6129628;19;19919;-71
2022/11/25 08:02:21;;;;;;;7.88;3.33;;;7.30;99.90;;;;;;6128232;19;19927;-70
2022/11/25 08:04:25;;;;;;;11.85;3.80;;;7.00;99.90;;;;;;6129087;19;20417;-69
2022/11/25 08:06:31;;;;;;;7.90;2.88;;;7.30;99.90;;;;;;6128300;19;19926;-69
2022/11/25 08:08:34;;;;;;;8.32;3.50;;;7.30;99.90;;;;;;6128899;19;19914;-69
2022/11/25 08:10:42;;;;;;;10.52;3.25;;;7.00;99.90;;;;;;6128693;19;19915;-69
2022/11/25 08:12:46;;;;;;;5.53;2.80;;;7.50;99.90;;;;;;6128617;19;19944;-69
2022/11/25 08:14:50;;;;;;;9.73;2.85;;;7.00;99.90;;;;;;6128654;19;19922;-69
2022/11/25 08:16:57;;;;;;;6.97;2.75;;;7.20;99.90;;;;;;6128386;19;19915;-69
2022/11/25 08:19:02;;;;;;;9.20;3.08;;;7.40;99.90;;;;;;6127806;19;19931;-69
2022/11/25 08:21:08;;;;;;;5.35;2.38;;;7.40;99.90;;;;;;6128420;19;20283;-68
2022/11/25 08:23:12;;;;;;;7.63;3.15;;;7.50;99.90;;;;;;6127834;19;19935;-69
2022/11/25 08:25:16;;;;;;;8.95;2.80;;;;;;;;;;6129063;19;20561;-68
2022/11/25 08:27:20;;;;;;;6.82;3.00;;;7.50;99.90;;;;;;6129332;19;20301;-69
2022/11/25 08:29:24;;;;;;;11.75;2.90;;;7.00;99.90;;;;;;6129887;19;19957;-70
2022/11/25 08:31:30;;;;;;;6.78;2.33;;;7.50;99.90;;;;;;6130395;19;19919;-70
2022/11/25 08:33:36;;;;;;;8.48;2.95;;;7.30;99.90;;;;;;6128735;19;19942;-68
2022/11/25 08:35:40;;;;;;;10.40;2.58;;;7.30;99.90;;;;;;6129365;19;19911;-69
2022/11/25 08:37:44;;;;;;;9.45;2.80;;;;;;;;;;6127016;19;19914;-70
2022/11/25 08:39:51;;;;;;;9.57;2.67;;;7.60;99.90;;;;;;6128712;19;20365;-69
2022/11/25 08:41:54;;;;;;;6.80;2.25;;;7.40;99.90;;;;;;6129597;19;19950;-70
2022/11/25 08:44:01;;;;;;;6.60;2.80;;;7.50;99.90;;;;;;6126747;19;19923;-69
2022/11/25 08:46:10;;;;;;;5.53;2.60;;;7.80;99.90;;;;;;6127977;19;20274;-70
2022/11/25 08:48:14;;;;;;;6.60;2.55;;;7.90;99.90;;;;;;6128144;19;19992;-70
2022/11/25 08:50:23;;;;;;;9.20;3.25;;;7.30;99.90;;;;;;6131624;19;20279;-69
2022/11/25 08:52:27;;;;;;;10.98;3.17;;;7.80;99.90;;;;;;6127898;19;19911;-70
2022/11/25 08:54:32;;;;;;;6.78;2.60;;;7.60;99.90;;;;;;6127864;19;19918;-70
2022/11/25 08:56:36;;;;;;;8.05;2.35;;;7.50;99.90;;;;;;6127284;19;19914;-69
2022/11/25 08:58:40;;;;;;;10.30;2.95;;;7.60;99.90;;;;;;6127877;19;19923;-70
2022/11/25 09:00:46;;;;;;;4.55;2.03;;;7.60;99.90;;;;;;6127743;19;19919;-69
2022/11/25 09:02:50;;;;;;;7.80;3.38;;;7.60;99.90;;;;;;6127089;19;19955;-70
2022/11/25 09:04:54;;;;;;;5.70;2.65;;;7.60;99.90;;;;;;6127629;19;19918;-69
2022/11/25 09:07:01;;;;;;;7.82;2.78;;;8.00;99.90;;;;;;6125306;19;19922;-69
2022/11/25 09:09:05;;;;;;;7.68;2.38;;;7.40;99.90;;;;;;6127270;19;19929;-69
2022/11/25 09:11:10;;;;;;;7.22;2.80;;;7.50;99.90;;;;;;6125920;19;19919;-69
2022/11/25 09:13:15;;;;;;;10.38;2.55;;;7.80;99.90;;;;;;6127243;19;19918;-69
2022/11/25 09:15:19;;;;;;;14.00;6.10;;;;;;;;;;6127170;19;19919;-70
2022/11/25 09:17:23;;;;;;;6.28;2.40;;;7.80;99.90;;;;;;6127051;19;19919;-69
2022/11/25 09:19:27;;;;;;;11.63;2.50;;;;;;;;;;6126978;19;19915;-69
2022/11/25 09:21:31;;;;;;;8.95;3.35;;;;;;;;;;6127215;19;19919;-69
2022/11/25 09:23:38;;;;;;;12.57;3.65;;;8.40;99.90;;;;;;6126105;19;20266;-69
2022/11/25 09:25:42;;;;;;;10.52;3.53;;;;;;;;;;6126437;19;19932;-69
2022/11/25 09:27:46;;;;;;;11.63;3.80;;;8.20;99.90;;;;;;6126794;19;19914;-69
2022/11/25 09:29:49;;;;;;;10.50;4.32;;;7.70;99.90;;;;;;6126933;19;19925;-69
2022/11/25 09:31:53;;;;;;;7.40;2.03;;;8.30;99.90;;;;;;6125296;19;20015;-70
2022/11/25 09:33:58;;;;;;;20.55;7.18;;;8.20;99.90;;;;;;6126778;19;20268;-69
2022/11/25 09:36:02;;;;;;;8.00;2.70;;;;;;;;;;6126451;19;19911;-69
2022/11/25 09:38:06;;;;;;;7.03;2.78;;;7.70;99.90;;;;;;6126097;19;19922;-69
2022/11/25 09:40:31;;;;;;;8.70;3.97;;;8.30;99.90;;;;;;6127033;19;19918;-71
2022/11/25 09:47:46;;;;;;;16.50;6.25;;;7.90;99.90;;;;;;6126088;19;19910;-69
2022/11/25 09:50:15;;;;;;;16.10;6.00;;;7.80;99.90;;;;;;6126713;19;19915;-70
2022/11/25 09:52:26;;;;;;;17.35;4.78;;;8.30;99.90;;;;;;6126304;19;20260;-71
2022/11/25 09:54:36;;;;;;;8.63;3.53;;;8.60;99.90;;;;;;6126585;19;19917;-70
2022/11/25 09:56:44;;;;;;;32.72;9.68;;;8.30;99.90;;;;;;6125848;19;19923;-69
2022/11/25 09:58:53;;;;;;;7.72;3.30;;;9.00;99.90;;;;;;6124571;19;19921;-70
2022/11/25 10:00:58;;;;;;;10.32;3.53;;;8.30;99.90;;;;;;6126197;19;19926;-69
2022/11/25 10:03:08;;;;;;;10.95;3.72;;;8.10;99.90;;;;;;6126149;19;19926;-70
2022/11/25 10:05:17;;;;;;;7.50;3.15;;;8.40;99.90;;;;;;6126324;19;19915;-69
2022/11/25 10:07:28;;;;;;;9.52;2.92;;;8.60;99.90;;;;;;6125637;19;19926;-70
2022/11/25 10:09:36;;;;;;;8.00;3.20;;;8.20;99.90;;;;;;6125980;19;20381;-69
2022/11/25 10:11:51;;;;;;;6.50;3.20;;;8.60;99.90;;;;;;6126119;19;19919;-70
2022/11/25 10:14:00;;;;;;;9.23;3.13;;;8.80;99.90;;;;;;6127579;19;19929;-70
2022/11/25 10:16:08;;;;;;;8.05;3.88;;;8.60;99.90;;;;;;6129960;19;19944;-69
2022/11/25 10:18:21;;;;;;;11.00;3.33;;;8.60;99.90;;;;;;6129707;19;19931;-68
2022/11/25 10:20:26;;;;;;;6.47;3.20;;;8.40;99.90;;;;;;6128245;19;20337;-69
2022/11/25 10:22:34;;;;;;;9.20;3.97;;;8.50;99.90;;;;;;6126512;19;19914;-69
2022/11/25 10:24:38;;;;;;;7.15;3.13;;;8.50;99.90;;;;;;6126183;19;19929;-69
2022/11/25 10:26:53;;;;;;;8.02;3.33;;;8.80;99.90;;;;;;6125210;19;19910;-70
2022/11/25 10:29:07;;;;;;;11.07;4.22;;;9.00;99.90;;;;;;6125743;19;19939;-69
2022/11/25 10:31:18;;;;;;;7.43;3.47;;;9.00;99.90;;;;;;6125699;19;20281;-69
2022/11/25 10:33:26;;;;;;;8.07;3.60;;;8.60;99.90;;;;;;6123977;19;20276;-69
2022/11/25 10:35:33;;;;;;;9.32;3.20;;;9.00;99.90;;;;;;6125820;19;19921;-69
2022/11/25 10:37:41;;;;;;;9.45;2.97;;;8.80;99.90;;;;;;6124050;19;19918;-69
2022/11/25 10:39:45;;;;;;;6.03;2.88;;;9.80;99.90;;;;;;6123806;19;20039;-69
2022/11/25 10:41:58;;;;;;;9.30;3.38;;;8.70;99.90;;;;;;6125524;19;19936;-69
2022/11/25 10:44:02;;;;;;;5.13;2.92;;;;;;;;;;6129123;19;19943;-69
2022/11/25 10:46:16;;;;;;;8.20;2.83;;;9.20;99.90;;;;;;6131626;19;19918;-70
2022/11/25 10:48:47;;;;;;;8.77;2.50;;;9.20;99.90;;;;;;6131056;19;19911;-70
2022/11/25 10:51:07;;;;;;;5.93;2.63;;;9.70;99.90;;;;;;6130550;19;19921;-69
2022/11/25 10:53:16;;;;;;;7.90;2.38;;;9.20;99.90;;;;;;6129673;19;19911;-69
2022/11/25 10:55:23;;;;;;;9.75;3.85;;;9.10;99.90;;;;;;6130109;19;20014;-69
2022/11/25 10:57:31;;;;;;;11.40;2.58;;;9.20;99.90;;;;;;6129855;19;19919;-69
2022/11/25 10:59:37;;;;;;;4.95;2.60;;;9.60;99.90;;;;;;6130398;19;20261;-69
2022/11/25 11:01:41;;;;;;;8.65;3.08;;;;;;;;;;6130198;19;19943;-70
2022/11/25 11:03:47;;;;;;;9.75;3.50;;;9.40;99.90;;;;;;6129177;19;19919;-69
2022/11/25 11:05:53;;;;;;;6.20;2.33;;;10.40;99.90;;;;;;6130259;19;20351;-69
2022/11/25 11:08:18;;;;;;;5.97;1.90;;;10.20;99.90;;;;;;6128459;19;19922;-69
2022/11/25 11:10:24;;;;;;;6.38;2.33;;;10.30;99.90;;;;;;6130141;19;20260;-68
2022/11/25 11:12:31;;;;;;;6.15;2.13;;;10.20;99.90;;;;;;6130120;19;19919;-69
2022/11/25 11:14:36;;;;;;;8.57;2.80;;;9.70;99.90;;;;;;6129962;19;19926;-69
2022/11/25 11:16:44;;;;;;;11.63;2.97;;;9.90;99.90;;;;;;6129599;19;19982;-69
2022/11/25 11:18:49;;;;;;;4.60;2.08;;;9.80;99.90;;;;;;6126607;19;20014;-69
2022/11/25 11:20:55;;;;;;;10.05;2.88;;;10.00;99.90;;;;;;6129926;19;19928;-69